sensor_id;sensor_type;location;lat;lon;timestamp;temperature;humidity
36716;DHT22;22699;51.034;3.730;2023-12-20T00:01:13;8.20;99.90
36716;DHT22;22699;51.034;3.730;2023-12-20T00:04:07;8.00;99.90
36716;DHT22;22699;51.034;3.730;2023-12-20T00:07:00;7.90;99.90
36716;DHT22;22699;51.034;3.730;2023-12-20T00:09:57;8.00;99.90
36716;DHT22;22699;51.034;3.730;2023-12-20T00:13:22;8.00;99.90
36716;DHT22;22699;51.034;3.730;2023-12-20T00:16:21;8.00;99.90
36716;DHT22;22699;51.034;3.730;2023-12-20T00:19:11;8.00;99.90
36716;DHT22;22699;51.034;3.730;2023-12-20T00:25:06;7.90;99.90
36716;DHT22;22699;51.034;3.730;2023-12-20T00:27:55;7.90;99.90
36716;DHT22;22699;51.034;3.730;2023-12-20T00:30:38;8.30;99.90
36716;DHT22;22699;51.034;3.730;2023-12-20T00:36:50;8.10;99.90
36716;DHT22;22699;51.034;3.730;2023-12-20T00:39:22;7.90;99.90
36716;DHT22;22699;51.034;3.730;2023-12-20T00:42:04;7.90;99.90
36716;DHT22;22699;51.034;3.730;2023-12-20T00:44:34;8.00;99.90
36716;DHT22;22699;51.034;3.730;2023-12-20T00:47:13;7.80;99.90
36716;DHT22;22699;51.034;3.730;2023-12-20T00:49:40;7.80;99.90
36716;DHT22;22699;51.034;3.730;2023-12-20T00:52:17;7.80;99.90
36716;DHT22;22699;51.034;3.730;2023-12-20T00:54:52;7.60;99.90
36716;DHT22;22699;51.034;3.730;2023-12-20T00:57:42;7.50;99.90
36716;DHT22;22699;51.034;3.730;2023-12-20T01:03:29;7.50;99.90
36716;DHT22;22699;51.034;3.730;2023-12-20T01:09:27;8.20;99.90
36716;DHT22;22699;51.034;3.730;2023-12-20T01:11:57;6.80;99.90
36716;DHT22;22699;51.034;3.730;2023-12-20T01:14:23;7.50;99.90
36716;DHT22;22699;51.034;3.730;2023-12-20T01:17:11;7.30;99.90
36716;DHT22;22699;51.034;3.730;2023-12-20T01:19:58;7.50;99.90
36716;DHT22;22699;51.034;3.730;2023-12-20T01:22:58;7.60;99.90
36716;DHT22;22699;51.034;3.730;2023-12-20T01:25:31;7.80;99.90
36716;DHT22;22699;51.034;3.730;2023-12-20T01:28:05;7.90;99.90
36716;DHT22;22699;51.034;3.730;2023-12-20T01:31:17;8.10;99.90
36716;DHT22;22699;51.034;3.730;2023-12-20T01:33:44;8.20;99.90
36716;DHT22;22699;51.034;3.730;2023-12-20T01:36:12;8.30;99.90
36716;DHT22;22699;51.034;3.730;2023-12-20T01:38:43;7.60;99.90
36716;DHT22;22699;51.034;3.730;2023-12-20T01:41:10;7.60;99.90
36716;DHT22;22699;51.034;3.730;2023-12-20T01:43:50;7.70;99.90
36716;DHT22;22699;51.034;3.730;2023-12-20T01:46:27;7.50;99.90
36716;DHT22;22699;51.034;3.730;2023-12-20T01:48:57;7.60;99.90
36716;DHT22;22699;51.034;3.730;2023-12-20T01:52:02;7.40;99.90
36716;DHT22;22699;51.034;3.730;2023-12-20T01:54:41;7.50;99.90
36716;DHT22;22699;51.034;3.730;2023-12-20T01:57:41;7.50;99.90
36716;DHT22;22699;51.034;3.730;2023-12-20T02:00:11;7.60;99.90
36716;DHT22;22699;51.034;3.730;2023-12-20T02:02:46;7.60;99.90
36716;DHT22;22699;51.034;3.730;2023-12-20T02:05:17;7.60;99.90
36716;DHT22;22699;51.034;3.730;2023-12-20T02:08:03;7.70;99.90
36716;DHT22;22699;51.034;3.730;2023-12-20T02:10:43;7.50;99.90
36716;DHT22;22699;51.034;3.730;2023-12-20T02:13:39;7.70;99.90
36716;DHT22;22699;51.034;3.730;2023-12-20T02:16:36;8.00;99.90
36716;DHT22;22699;51.034;3.730;2023-12-20T02:19:15;7.60;99.90
36716;DHT22;22699;51.034;3.730;2023-12-20T02:25:14;7.70;99.90
36716;DHT22;22699;51.034;3.730;2023-12-20T02:27:53;7.70;99.90
36716;DHT22;22699;51.034;3.730;2023-12-20T02:30:53;7.80;99.90
36716;DHT22;22699;51.034;3.730;2023-12-20T02:33:44;7.70;99.90
36716;DHT22;22699;51.034;3.730;2023-12-20T02:43:13;7.70;99.90
36716;DHT22;22699;51.034;3.730;2023-12-20T02:49:24;7.80;99.90
36716;DHT22;22699;51.034;3.730;2023-12-20T02:56:06;7.70;99.90
36716;DHT22;22699;51.034;3.730;2023-12-20T03:02:48;7.60;99.90
36716;DHT22;22699;51.034;3.730;2023-12-20T03:05:15;7.50;99.90
36716;DHT22;22699;51.034;3.730;2023-12-20T03:07:42;7.70;99.90
36716;DHT22;22699;51.034;3.730;2023-12-20T03:10:14;7.80;99.90
36716;DHT22;22699;51.034;3.730;2023-12-20T03:12:50;8.20;99.90
36716;DHT22;22699;51.034;3.730;2023-12-20T03:15:21;7.70;99.90
36716;DHT22;22699;51.034;3.730;2023-12-20T03:17:49;7.90;99.90
36716;DHT22;22699;51.034;3.730;2023-12-20T03:20:15;8.40;99.90
36716;DHT22;22699;51.034;3.730;2023-12-20T03:22:46;8.00;99.90
36716;DHT22;22699;51.034;3.730;2023-12-20T03:25:22;7.80;99.90
36716;DHT22;22699;51.034;3.730;2023-12-20T03:28:00;8.10;99.90
36716;DHT22;22699;51.034;3.730;2023-12-20T03:30:37;8.00;99.90
36716;DHT22;22699;51.034;3.730;2023-12-20T03:33:10;7.90;99.90
36716;DHT22;22699;51.034;3.730;2023-12-20T03:35:44;7.70;99.90
36716;DHT22;22699;51.034;3.730;2023-12-20T03:38:17;7.50;99.90
36716;DHT22;22699;51.034;3.730;2023-12-20T03:40:56;7.50;99.90
36716;DHT22;22699;51.034;3.730;2023-12-20T03:43:24;7.10;99.90
36716;DHT22;22699;51.034;3.730;2023-12-20T03:45:50;7.30;99.90
36716;DHT22;22699;51.034;3.730;2023-12-20T03:48:20;7.50;99.90
36716;DHT22;22699;51.034;3.730;2023-12-20T03:50:48;7.40;99.90
36716;DHT22;22699;51.034;3.730;2023-12-20T03:53:17;7.40;99.90
36716;DHT22;22699;51.034;3.730;2023-12-20T03:55:48;7.60;99.90
36716;DHT22;22699;51.034;3.730;2023-12-20T03:58:14;7.60;99.90
36716;DHT22;22699;51.034;3.730;2023-12-20T04:00:50;8.00;99.90
36716;DHT22;22699;51.034;3.730;2023-12-20T04:03:19;7.60;99.90
36716;DHT22;22699;51.034;3.730;2023-12-20T04:05:49;7.30;99.90
36716;DHT22;22699;51.034;3.730;2023-12-20T04:08:52;7.40;99.90
36716;DHT22;22699;51.034;3.730;2023-12-20T04:11:46;7.50;99.90
36716;DHT22;22699;51.034;3.730;2023-12-20T04:14:37;7.40;99.90
36716;DHT22;22699;51.034;3.730;2023-12-20T04:17:09;7.50;99.90
36716;DHT22;22699;51.034;3.730;2023-12-20T04:19:54;7.70;99.90
36716;DHT22;22699;51.034;3.730;2023-12-20T04:22:21;7.50;99.90
36716;DHT22;22699;51.034;3.730;2023-12-20T04:24:48;7.80;99.90
36716;DHT22;22699;51.034;3.730;2023-12-20T04:27:16;7.90;99.90
36716;DHT22;22699;51.034;3.730;2023-12-20T04:29:56;7.60;99.90
36716;DHT22;22699;51.034;3.730;2023-12-20T04:32:24;7.60;99.90
36716;DHT22;22699;51.034;3.730;2023-12-20T04:34:53;7.50;99.90
36716;DHT22;22699;51.034;3.730;2023-12-20T04:37:19;7.80;99.90
36716;DHT22;22699;51.034;3.730;2023-12-20T04:39:51;7.40;99.90
36716;DHT22;22699;51.034;3.730;2023-12-20T04:42:37;7.40;99.90
36716;DHT22;22699;51.034;3.730;2023-12-20T04:45:30;7.30;99.90
36716;DHT22;22699;51.034;3.730;2023-12-20T04:51:23;7.20;99.90
36716;DHT22;22699;51.034;3.730;2023-12-20T04:54:07;7.30;99.90
36716;DHT22;22699;51.034;3.730;2023-12-20T04:56:53;7.50;99.90
36716;DHT22;22699;51.034;3.730;2023-12-20T04:59:20;7.80;99.90
36716;DHT22;22699;51.034;3.730;2023-12-20T05:01:47;7.40;99.90
36716;DHT22;22699;51.034;3.730;2023-12-20T05:07:37;6.90;99.90
36716;DHT22;22699;51.034;3.730;2023-12-20T05:13:12;6.80;99.90
36716;DHT22;22699;51.034;3.730;2023-12-20T05:15:44;7.40;99.90
36716;DHT22;22699;51.034;3.730;2023-12-20T05:18:22;6.80;99.90
36716;DHT22;22699;51.034;3.730;2023-12-20T05:20:51;7.00;99.90
36716;DHT22;22699;51.034;3.730;2023-12-20T05:23:26;6.90;99.90
36716;DHT22;22699;51.034;3.730;2023-12-20T05:25:54;7.60;99.90
36716;DHT22;22699;51.034;3.730;2023-12-20T05:28:25;7.00;99.90
36716;DHT22;22699;51.034;3.730;2023-12-20T05:30:51;7.30;99.90
36716;DHT22;22699;51.034;3.730;2023-12-20T05:36:41;6.70;99.90
36716;DHT22;22699;51.034;3.730;2023-12-20T05:39:22;6.90;99.90
36716;DHT22;22699;51.034;3.730;2023-12-20T05:42:03;6.70;99.90
36716;DHT22;22699;51.034;3.730;2023-12-20T05:44:44;7.00;99.90
36716;DHT22;22699;51.034;3.730;2023-12-20T05:47:11;6.90;99.90
36716;DHT22;22699;51.034;3.730;2023-12-20T05:49:38;6.50;99.90
36716;DHT22;22699;51.034;3.730;2023-12-20T05:52:12;7.00;99.90
36716;DHT22;22699;51.034;3.730;2023-12-20T05:55:01;6.90;99.90
36716;DHT22;22699;51.034;3.730;2023-12-20T05:57:49;7.00;99.90
36716;DHT22;22699;51.034;3.730;2023-12-20T06:00:23;6.90;99.90
36716;DHT22;22699;51.034;3.730;2023-12-20T06:03:43;6.90;99.90
36716;DHT22;22699;51.034;3.730;2023-12-20T07:53:00;6.30;99.90
36716;DHT22;22699;51.034;3.730;2023-12-20T07:59:26;6.10;99.90
36716;DHT22;22699;51.034;3.730;2023-12-20T08:02:09;6.30;99.90
36716;DHT22;22699;51.034;3.730;2023-12-20T08:05:02;6.40;99.90
36716;DHT22;22699;51.034;3.730;2023-12-20T08:08:11;6.40;99.90
36716;DHT22;22699;51.034;3.730;2023-12-20T08:11:00;6.60;99.90
36716;DHT22;22699;51.034;3.730;2023-12-20T08:13:41;6.50;99.90
36716;DHT22;22699;51.034;3.730;2023-12-20T08:16:49;6.50;99.90
36716;DHT22;22699;51.034;3.730;2023-12-20T08:20:04;6.80;99.90
36716;DHT22;22699;51.034;3.730;2023-12-20T08:23:27;6.90;99.90
36716;DHT22;22699;51.034;3.730;2023-12-20T08:26:12;6.70;99.90
36716;DHT22;22699;51.034;3.730;2023-12-20T08:29:06;7.50;99.90
36716;DHT22;22699;51.034;3.730;2023-12-20T08:31:39;7.50;99.90
36716;DHT22;22699;51.034;3.730;2023-12-20T08:34:11;7.90;99.90
36716;DHT22;22699;51.034;3.730;2023-12-20T08:40:38;8.40;99.90
36716;DHT22;22699;51.034;3.730;2023-12-20T08:43:44;8.70;99.90
36716;DHT22;22699;51.034;3.730;2023-12-20T08:53:13;9.80;99.90
36716;DHT22;22699;51.034;3.730;2023-12-20T08:56:15;9.90;99.90
36716;DHT22;22699;51.034;3.730;2023-12-20T08:59:40;9.10;99.90
36716;DHT22;22699;51.034;3.730;2023-12-20T09:02:30;9.30;99.90
36716;DHT22;22699;51.034;3.730;2023-12-20T09:10:50;8.20;99.90
36716;DHT22;22699;51.034;3.730;2023-12-20T09:13:43;8.40;99.90
36716;DHT22;22699;51.034;3.730;2023-12-20T09:16:53;8.30;99.90
36716;DHT22;22699;51.034;3.730;2023-12-20T09:20:16;8.00;99.90
36716;DHT22;22699;51.034;3.730;2023-12-20T09:23:42;8.00;99.90
36716;DHT22;22699;51.034;3.730;2023-12-20T09:27:08;7.70;99.90
36716;DHT22;22699;51.034;3.730;2023-12-20T09:30:14;7.70;99.90
36716;DHT22;22699;51.034;3.730;2023-12-20T09:36:44;7.40;99.90
36716;DHT22;22699;51.034;3.730;2023-12-20T09:51:33;8.00;99.90
36716;DHT22;22699;51.034;3.730;2023-12-20T09:54:32;7.80;99.90
36716;DHT22;22699;51.034;3.730;2023-12-20T09:57:24;7.90;99.90
36716;DHT22;22699;51.034;3.730;2023-12-20T10:00:32;8.10;99.90
36716;DHT22;22699;51.034;3.730;2023-12-20T10:03:56;8.70;99.90
36716;DHT22;22699;51.034;3.730;2023-12-20T10:07:11;8.30;99.90
36716;DHT22;22699;51.034;3.730;2023-12-20T10:10:09;8.20;99.90
36716;DHT22;22699;51.034;3.730;2023-12-20T10:13:22;8.00;99.90
36716;DHT22;22699;51.034;3.730;2023-12-20T10:16:24;7.90;99.90
36716;DHT22;22699;51.034;3.730;2023-12-20T10:18:50;8.00;99.90
36716;DHT22;22699;51.034;3.730;2023-12-20T10:21:20;8.30;99.90
36716;DHT22;22699;51.034;3.730;2023-12-20T10:24:19;8.40;99.90
36716;DHT22;22699;51.034;3.730;2023-12-20T10:27:05;8.50;99.90
36716;DHT22;22699;51.034;3.730;2023-12-20T10:29:38;8.60;99.90
36716;DHT22;22699;51.034;3.730;2023-12-20T10:35:55;8.50;99.90
36716;DHT22;22699;51.034;3.730;2023-12-20T10:38:54;8.50;99.90
36716;DHT22;22699;51.034;3.730;2023-12-20T10:41:38;8.60;99.90
36716;DHT22;22699;51.034;3.730;2023-12-20T10:44:26;8.50;99.90
36716;DHT22;22699;51.034;3.730;2023-12-20T10:47:00;8.60;99.90
36716;DHT22;22699;51.034;3.730;2023-12-20T10:49:57;8.90;99.90
36716;DHT22;22699;51.034;3.730;2023-12-20T10:52:55;8.50;99.90
36716;DHT22;22699;51.034;3.730;2023-12-20T10:55:36;8.60;99.90
36716;DHT22;22699;51.034;3.730;2023-12-20T10:58:07;8.50;99.90
36716;DHT22;22699;51.034;3.730;2023-12-20T11:00:48;8.20;99.90
36716;DHT22;22699;51.034;3.730;2023-12-20T11:03:26;8.70;99.90
36716;DHT22;22699;51.034;3.730;2023-12-20T11:06:29;8.70;99.90
36716;DHT22;22699;51.034;3.730;2023-12-20T11:09:25;8.80;99.90
36716;DHT22;22699;51.034;3.730;2023-12-20T11:12:16;8.90;99.90
36716;DHT22;22699;51.034;3.730;2023-12-20T11:14:50;8.90;99.90
36716;DHT22;22699;51.034;3.730;2023-12-20T11:17:31;8.90;99.90
36716;DHT22;22699;51.034;3.730;2023-12-20T11:22:32;9.00;99.90
36716;DHT22;22699;51.034;3.730;2023-12-20T11:25:05;9.30;99.90
36716;DHT22;22699;51.034;3.730;2023-12-20T11:27:42;9.30;99.90
36716;DHT22;22699;51.034;3.730;2023-12-20T11:30:11;9.60;99.90
36716;DHT22;22699;51.034;3.730;2023-12-20T11:32:41;9.40;99.90
36716;DHT22;22699;51.034;3.730;2023-12-20T11:35:18;9.30;99.90
36716;DHT22;22699;51.034;3.730;2023-12-20T11:38:04;9.60;99.90
36716;DHT22;22699;51.034;3.730;2023-12-20T11:40:37;9.20;99.90
36716;DHT22;22699;51.034;3.730;2023-12-20T11:43:07;9.50;99.90
36716;DHT22;22699;51.034;3.730;2023-12-20T11:45:53;9.50;99.90
36716;DHT22;22699;51.034;3.730;2023-12-20T11:48:43;9.60;99.90
36716;DHT22;22699;51.034;3.730;2023-12-20T11:51:45;9.40;99.90
36716;DHT22;22699;51.034;3.730;2023-12-20T11:54:44;9.80;99.90
36716;DHT22;22699;51.034;3.730;2023-12-20T11:57:53;9.80;99.90
36716;DHT22;22699;51.034;3.730;2023-12-20T12:00:20;9.70;99.90
36716;DHT22;22699;51.034;3.730;2023-12-20T12:06:49;10.00;99.90
36716;DHT22;22699;51.034;3.730;2023-12-20T12:09:24;9.80;99.90
36716;DHT22;22699;51.034;3.730;2023-12-20T12:11:57;10.30;99.90
36716;DHT22;22699;51.034;3.730;2023-12-20T12:14:51;9.90;99.90
36716;DHT22;22699;51.034;3.730;2023-12-20T12:17:31;9.80;99.90
36716;DHT22;22699;51.034;3.730;2023-12-20T12:28:19;9.60;99.90
36716;DHT22;22699;51.034;3.730;2023-12-20T12:37:07;9.90;99.90
36716;DHT22;22699;51.034;3.730;2023-12-20T12:39:42;10.20;99.90
36716;DHT22;22699;51.034;3.730;2023-12-20T12:42:10;10.20;99.90
36716;DHT22;22699;51.034;3.730;2023-12-20T12:48:04;10.10;99.90
36716;DHT22;22699;51.034;3.730;2023-12-20T12:50:54;10.60;99.90
36716;DHT22;22699;51.034;3.730;2023-12-20T12:53:39;10.10;99.90
36716;DHT22;22699;51.034;3.730;2023-12-20T12:56:31;10.00;99.90
36716;DHT22;22699;51.034;3.730;2023-12-20T13:03:34;10.20;99.90
36716;DHT22;22699;51.034;3.730;2023-12-20T13:07:10;9.80;99.90
36716;DHT22;22699;51.034;3.730;2023-12-20T13:10:46;10.10;99.90
36716;DHT22;22699;51.034;3.730;2023-12-20T13:13:21;10.10;99.90
36716;DHT22;22699;51.034;3.730;2023-12-20T13:23:13;10.40;99.90
36716;DHT22;22699;51.034;3.730;2023-12-20T13:29:57;10.60;99.90
36716;DHT22;22699;51.034;3.730;2023-12-20T13:35:58;10.60;99.90
36716;DHT22;22699;51.034;3.730;2023-12-20T13:39:29;10.60;99.90
36716;DHT22;22699;51.034;3.730;2023-12-20T13:42:58;10.40;99.90
36716;DHT22;22699;51.034;3.730;2023-12-20T13:46:12;10.30;99.90
36716;DHT22;22699;51.034;3.730;2023-12-20T13:52:38;10.10;99.90
36716;DHT22;22699;51.034;3.730;2023-12-20T14:13:11;10.20;99.90
36716;DHT22;22699;51.034;3.730;2023-12-20T14:19:16;9.90;99.90
36716;DHT22;22699;51.034;3.730;2023-12-20T14:22:19;10.10;99.90
36716;DHT22;22699;51.034;3.730;2023-12-20T15:17:44;10.00;99.90
36716;DHT22;22699;51.034;3.730;2023-12-20T15:20:19;9.90;99.90
36716;DHT22;22699;51.034;3.730;2023-12-20T15:23:42;9.90;99.90
36716;DHT22;22699;51.034;3.730;2023-12-20T15:26:50;9.70;99.90
36716;DHT22;22699;51.034;3.730;2023-12-20T15:29:48;9.80;99.90
36716;DHT22;22699;51.034;3.730;2023-12-20T15:32:19;9.90;99.90
36716;DHT22;22699;51.034;3.730;2023-12-20T15:34:46;9.50;99.90
36716;DHT22;22699;51.034;3.730;2023-12-20T15:37:17;9.90;99.90
36716;DHT22;22699;51.034;3.730;2023-12-20T15:40:12;9.70;99.90
36716;DHT22;22699;51.034;3.730;2023-12-20T15:42:39;9.60;99.90
36716;DHT22;22699;51.034;3.730;2023-12-20T15:45:21;9.90;99.90
36716;DHT22;22699;51.034;3.730;2023-12-20T15:47:51;9.90;99.90
36716;DHT22;22699;51.034;3.730;2023-12-20T20:10:20;9.60;99.90
36716;DHT22;22699;51.034;3.730;2023-12-20T20:12:48;9.60;99.90
36716;DHT22;22699;51.034;3.730;2023-12-20T20:15:14;9.70;99.90
36716;DHT22;22699;51.034;3.730;2023-12-20T20:17:40;9.80;99.90
36716;DHT22;22699;51.034;3.730;2023-12-20T20:20:09;10.00;99.90
36716;DHT22;22699;51.034;3.730;2023-12-20T20:22:37;10.00;99.90
36716;DHT22;22699;51.034;3.730;2023-12-20T20:25:12;10.00;99.90
36716;DHT22;22699;51.034;3.730;2023-12-20T20:27:37;10.00;99.90
36716;DHT22;22699;51.034;3.730;2023-12-20T20:30:12;10.10;99.90
36716;DHT22;22699;51.034;3.730;2023-12-20T20:32:41;10.00;99.90
36716;DHT22;22699;51.034;3.730;2023-12-20T20:35:11;10.10;99.90
36716;DHT22;22699;51.034;3.730;2023-12-20T20:37:44;10.00;99.90
36716;DHT22;22699;51.034;3.730;2023-12-20T20:40:10;10.00;99.90
36716;DHT22;22699;51.034;3.730;2023-12-20T20:42:37;9.90;99.90
36716;DHT22;22699;51.034;3.730;2023-12-20T20:45:07;10.00;99.90
36716;DHT22;22699;51.034;3.730;2023-12-20T20:47:38;10.10;99.90
36716;DHT22;22699;51.034;3.730;2023-12-20T20:50:18;10.10;99.90
36716;DHT22;22699;51.034;3.730;2023-12-20T20:52:52;10.00;99.90
36716;DHT22;22699;51.034;3.730;2023-12-20T20:55:18;10.10;99.90
36716;DHT22;22699;51.034;3.730;2023-12-20T20:57:43;10.20;99.90
36716;DHT22;22699;51.034;3.730;2023-12-20T21:00:35;10.10;99.90
36716;DHT22;22699;51.034;3.730;2023-12-20T21:03:02;10.20;99.90
36716;DHT22;22699;51.034;3.730;2023-12-20T21:05:28;10.20;99.90
36716;DHT22;22699;51.034;3.730;2023-12-20T21:07:54;10.10;99.90
36716;DHT22;22699;51.034;3.730;2023-12-20T21:10:24;10.10;99.90
36716;DHT22;22699;51.034;3.730;2023-12-20T21:12:49;10.10;99.90
36716;DHT22;22699;51.034;3.730;2023-12-20T21:15:15;10.20;99.90
36716;DHT22;22699;51.034;3.730;2023-12-20T21:17:41;10.20;99.90
36716;DHT22;22699;51.034;3.730;2023-12-20T21:20:12;10.10;99.90
36716;DHT22;22699;51.034;3.730;2023-12-20T21:22:39;10.20;99.90
36716;DHT22;22699;51.034;3.730;2023-12-20T21:25:07;10.00;99.90
36716;DHT22;22699;51.034;3.730;2023-12-20T21:27:35;10.20;99.90
36716;DHT22;22699;51.034;3.730;2023-12-20T21:30:02;10.40;99.90
36716;DHT22;22699;51.034;3.730;2023-12-20T21:32:30;10.30;99.90
36716;DHT22;22699;51.034;3.730;2023-12-20T21:34:57;10.20;99.90
36716;DHT22;22699;51.034;3.730;2023-12-20T21:37:24;10.40;99.90
36716;DHT22;22699;51.034;3.730;2023-12-20T21:39:52;10.40;99.90
36716;DHT22;22699;51.034;3.730;2023-12-20T21:42:43;10.50;99.90
36716;DHT22;22699;51.034;3.730;2023-12-20T21:45:21;10.50;99.90
36716;DHT22;22699;51.034;3.730;2023-12-20T21:48:09;10.50;99.90
36716;DHT22;22699;51.034;3.730;2023-12-20T21:50:35;10.80;99.90
36716;DHT22;22699;51.034;3.730;2023-12-20T21:53:05;10.70;99.90
36716;DHT22;22699;51.034;3.730;2023-12-20T21:55:36;10.60;99.90
36716;DHT22;22699;51.034;3.730;2023-12-20T21:58:01;10.70;99.90
36716;DHT22;22699;51.034;3.730;2023-12-20T22:00:27;10.80;99.90
36716;DHT22;22699;51.034;3.730;2023-12-20T22:02:53;10.80;99.90
36716;DHT22;22699;51.034;3.730;2023-12-20T22:05:18;10.70;99.90
36716;DHT22;22699;51.034;3.730;2023-12-20T22:07:44;10.60;99.90
36716;DHT22;22699;51.034;3.730;2023-12-20T22:10:11;10.80;99.90
36716;DHT22;22699;51.034;3.730;2023-12-20T22:12:37;10.80;99.90
36716;DHT22;22699;51.034;3.730;2023-12-20T22:15:05;10.70;99.90
36716;DHT22;22699;51.034;3.730;2023-12-20T22:17:31;10.70;99.90
36716;DHT22;22699;51.034;3.730;2023-12-20T22:19:56;10.90;99.90
36716;DHT22;22699;51.034;3.730;2023-12-20T22:22:22;10.50;99.90
36716;DHT22;22699;51.034;3.730;2023-12-20T22:24:47;10.60;99.90
36716;DHT22;22699;51.034;3.730;2023-12-20T22:27:14;10.70;99.90
36716;DHT22;22699;51.034;3.730;2023-12-20T22:29:42;10.80;99.90
36716;DHT22;22699;51.034;3.730;2023-12-20T22:32:07;10.80;99.90
36716;DHT22;22699;51.034;3.730;2023-12-20T22:34:35;10.70;99.90
36716;DHT22;22699;51.034;3.730;2023-12-20T22:37:04;10.40;99.90
36716;DHT22;22699;51.034;3.730;2023-12-20T22:39:31;10.50;99.90
36716;DHT22;22699;51.034;3.730;2023-12-20T22:41:56;10.50;99.90
36716;DHT22;22699;51.034;3.730;2023-12-20T22:44:22;10.70;99.90
36716;DHT22;22699;51.034;3.730;2023-12-20T22:46:47;10.50;99.90
36716;DHT22;22699;51.034;3.730;2023-12-20T22:49:13;10.40;99.90
36716;DHT22;22699;51.034;3.730;2023-12-20T22:51:38;10.40;99.90
36716;DHT22;22699;51.034;3.730;2023-12-20T22:54:04;10.50;99.90
36716;DHT22;22699;51.034;3.730;2023-12-20T22:56:31;10.40;99.90
36716;DHT22;22699;51.034;3.730;2023-12-20T22:58:56;10.70;99.90
36716;DHT22;22699;51.034;3.730;2023-12-20T23:01:22;10.50;99.90
36716;DHT22;22699;51.034;3.730;2023-12-20T23:03:48;10.70;99.90
36716;DHT22;22699;51.034;3.730;2023-12-20T23:06:13;10.60;99.90
36716;DHT22;22699;51.034;3.730;2023-12-20T23:08:40;10.60;99.90
36716;DHT22;22699;51.034;3.730;2023-12-20T23:11:06;10.80;99.90
36716;DHT22;22699;51.034;3.730;2023-12-20T23:13:31;10.70;99.90
36716;DHT22;22699;51.034;3.730;2023-12-20T23:15:57;10.50;99.90
36716;DHT22;22699;51.034;3.730;2023-12-20T23:18:23;10.60;99.90
36716;DHT22;22699;51.034;3.730;2023-12-20T23:20:49;11.00;99.90
36716;DHT22;22699;51.034;3.730;2023-12-20T23:23:15;10.50;99.90
36716;DHT22;22699;51.034;3.730;2023-12-20T23:25:41;10.50;99.90
36716;DHT22;22699;51.034;3.730;2023-12-20T23:28:06;10.50;99.90
36716;DHT22;22699;51.034;3.730;2023-12-20T23:30:32;10.60;99.90
36716;DHT22;22699;51.034;3.730;2023-12-20T23:32:58;10.50;99.90
36716;DHT22;22699;51.034;3.730;2023-12-20T23:35:25;10.50;99.90
36716;DHT22;22699;51.034;3.730;2023-12-20T23:37:50;10.70;99.90
36716;DHT22;22699;51.034;3.730;2023-12-20T23:40:18;10.50;99.90
36716;DHT22;22699;51.034;3.730;2023-12-20T23:42:43;10.70;99.90
36716;DHT22;22699;51.034;3.730;2023-12-20T23:45:09;10.70;99.90
36716;DHT22;22699;51.034;3.730;2023-12-20T23:47:37;10.50;99.90
36716;DHT22;22699;51.034;3.730;2023-12-20T23:50:02;10.50;99.90
36716;DHT22;22699;51.034;3.730;2023-12-20T23:52:29;10.50;99.90
36716;DHT22;22699;51.034;3.730;2023-12-20T23:54:54;10.50;99.90
36716;DHT22;22699;51.034;3.730;2023-12-20T23:57:20;10.50;99.90
36716;DHT22;22699;51.034;3.730;2023-12-20T23:59:46;10.60;99.90
